createdAt,value
2019-04-27T00:01:40.616Z,10.74
2019-04-27T00:04:16.254Z,10.73
2019-04-27T00:06:47.837Z,10.73
2019-04-27T00:09:43.213Z,10.73
2019-04-27T00:12:10.875Z,10.74
2019-04-27T00:14:40.650Z,10.74
2019-04-27T00:17:41.309Z,10.74
2019-04-27T00:19:57.417Z,10.75
2019-04-27T00:22:33.335Z,10.73
2019-04-27T00:25:03.469Z,10.74
2019-04-27T00:27:33.661Z,10.73
2019-04-27T00:30:04.045Z,10.68
2019-04-27T00:32:33.757Z,10.72
2019-04-27T00:35:03.923Z,10.72
2019-04-27T00:37:35.248Z,10.73
2019-04-27T00:40:23.684Z,10.75
2019-04-27T00:42:54.163Z,10.71
2019-04-27T00:45:24.063Z,10.67
2019-04-27T00:47:59.331Z,10.67
2019-04-27T00:50:25.238Z,10.67
2019-04-27T00:52:54.927Z,10.65
2019-04-27T00:55:24.763Z,10.66
2019-04-27T00:57:59.168Z,10.68
2019-04-27T01:00:36.610Z,10.64
2019-04-27T01:03:16.947Z,10.62
2019-04-27T01:05:46.724Z,10.64
2019-04-27T01:08:16.426Z,10.68
2019-04-27T01:10:46.227Z,10.64
2019-04-27T01:13:15.963Z,10.64
2019-04-27T01:15:45.722Z,10.67
2019-04-27T01:18:15.687Z,10.69
2019-04-27T01:20:45.456Z,10.62
2019-04-27T01:23:15.316Z,10.65
2019-04-27T01:25:46.652Z,10.68
2019-04-27T01:28:23.574Z,10.69
2019-04-27T01:30:58.877Z,10.65
2019-04-27T01:33:30.310Z,10.66
2019-04-27T01:36:00.119Z,10.66
2019-04-27T01:38:29.855Z,10.64
2019-04-27T01:41:00.669Z,10.66
2019-04-27T01:43:30.606Z,10.66
2019-04-27T01:46:01.045Z,10.69
2019-04-27T01:48:31.034Z,10.68
2019-04-27T01:51:00.791Z,10.71
2019-04-27T01:53:34.439Z,10.72
2019-04-27T01:56:04.254Z,10.71
2019-04-27T01:58:34.040Z,10.66
2019-04-27T02:01:23.086Z,10.67
2019-04-27T02:04:00.252Z,10.68
2019-04-27T02:06:30.202Z,10.72
2019-04-27T02:09:00.054Z,10.70
2019-04-27T02:11:29.856Z,10.70
2019-04-27T02:13:59.902Z,10.69
2019-04-27T02:16:30.679Z,10.68
2019-04-27T02:19:00.515Z,10.66
2019-04-27T02:21:30.495Z,10.67
2019-04-27T02:24:00.165Z,10.67
2019-04-27T02:26:30.065Z,10.66
2019-04-27T02:29:04.557Z,10.65
2019-04-27T02:31:35.984Z,10.66
2019-04-27T02:34:20.037Z,10.66
2019-04-27T02:36:50.326Z,10.68
2019-04-27T02:39:21.702Z,10.64
2019-04-27T02:41:51.869Z,10.63
2019-04-27T02:44:26.445Z,10.65
2019-04-27T02:46:56.238Z,10.66
2019-04-27T02:49:26.062Z,10.68
2019-04-27T02:51:59.283Z,10.71
2019-04-27T02:54:29.848Z,10.72
2019-04-27T02:56:59.940Z,10.67
2019-04-27T02:59:30.470Z,10.72
2019-04-27T03:02:02.205Z,10.74
2019-04-27T03:04:31.881Z,10.71
2019-04-27T03:07:01.566Z,10.79
2019-04-27T03:09:31.292Z,10.76
2019-04-27T03:12:02.128Z,10.66
2019-04-27T03:14:50.572Z,10.62
2019-04-27T03:17:22.905Z,10.66
2019-04-27T03:20:05.979Z,10.65
2019-04-27T03:22:39.579Z,10.66
2019-04-27T03:25:14.900Z,10.62
2019-04-27T03:27:44.309Z,10.66
2019-04-27T03:30:15.704Z,10.66
2019-04-27T03:32:45.563Z,10.64
2019-04-27T03:35:15.361Z,10.68
2019-04-27T03:37:45.347Z,10.79
2019-04-27T03:40:15.364Z,10.73
2019-04-27T03:42:49.833Z,10.77
2019-04-27T03:45:20.004Z,10.71
2019-04-27T03:47:50.669Z,10.85
2019-04-27T03:50:22.211Z,10.71
2019-04-27T03:53:10.326Z,10.63
2019-04-27T03:55:42.735Z,10.62
2019-04-27T03:58:14.437Z,10.58
2019-04-27T04:00:44.243Z,10.55
2019-04-27T04:03:14.228Z,10.54
2019-04-27T04:05:45.564Z,10.56
2019-04-27T04:08:15.409Z,10.57
2019-04-27T04:10:49.366Z,10.54
2019-04-27T04:13:39.201Z,10.54
2019-04-27T04:16:16.023Z,10.60
2019-04-27T04:19:02.276Z,10.69
2019-04-27T04:21:32.162Z,10.72
2019-04-27T04:24:02.094Z,10.65
2019-04-27T04:26:32.794Z,10.67
2019-04-27T04:29:03.068Z,10.67
2019-04-27T04:31:33.521Z,10.65
2019-04-27T04:34:03.541Z,10.62
2019-04-27T04:36:33.434Z,10.64
2019-04-27T04:39:03.810Z,10.60
2019-04-27T04:41:40.606Z,10.66
2019-04-27T04:44:12.478Z,10.64
2019-04-27T04:46:50.268Z,10.77
2019-04-27T04:49:20.291Z,10.62
2019-04-27T04:51:50.449Z,10.62
2019-04-27T04:54:24.802Z,10.68
2019-04-27T04:56:54.784Z,10.75
2019-04-27T04:59:24.804Z,10.80
2019-04-27T05:01:54.681Z,10.83
2019-04-27T05:04:24.434Z,10.81
2019-04-27T05:06:54.259Z,10.89
2019-04-27T05:09:24.023Z,11.01
2019-04-27T05:11:53.674Z,10.93
2019-04-27T05:14:23.390Z,10.89
2019-04-27T05:16:53.104Z,10.94
2019-04-27T05:19:23.064Z,11.02
2019-04-27T05:21:52.851Z,11.07
2019-04-27T05:24:22.556Z,11.09
2019-04-27T05:26:52.232Z,11.12
2019-04-27T05:29:21.988Z,11.11
2019-04-27T05:31:51.771Z,11.19
2019-04-27T05:34:21.570Z,11.21
2019-04-27T05:36:52.627Z,11.38
2019-04-27T05:39:24.975Z,11.42
2019-04-27T05:41:53.983Z,11.57
2019-04-27T05:44:25.623Z,11.47
2019-04-27T05:46:58.647Z,11.47
2019-04-27T05:49:36.271Z,11.66
2019-04-27T05:52:08.580Z,11.60
2019-04-27T05:54:38.609Z,11.56
2019-04-27T05:57:09.517Z,11.63
2019-04-27T05:59:39.794Z,11.67
2019-04-27T06:02:09.677Z,11.80
2019-04-27T06:04:41.400Z,11.75
2019-04-27T06:07:10.785Z,11.77
2019-04-27T06:09:40.489Z,11.81
2019-04-27T06:12:10.191Z,11.82
2019-04-27T06:14:39.902Z,11.95
2019-04-27T06:17:09.589Z,12.22
2019-04-27T06:19:39.353Z,12.21
2019-04-27T06:22:09.675Z,12.63
2019-04-27T06:24:39.749Z,12.74
2019-04-27T06:27:09.529Z,13.11
2019-04-27T06:29:40.866Z,12.92
2019-04-27T06:32:11.038Z,12.93
2019-04-27T06:34:40.808Z,13.22
2019-04-27T06:37:10.596Z,13.52
2019-04-27T06:39:40.340Z,14.11
2019-04-27T06:42:16.730Z,14.32
2019-04-27T06:44:41.420Z,15.24
2019-04-27T06:47:11.191Z,15.59
2019-04-27T06:49:40.891Z,15.67
2019-04-27T06:52:11.691Z,15.80
2019-04-27T06:54:41.441Z,16.24
2019-04-27T06:57:11.153Z,16.50
2019-04-27T06:59:40.837Z,16.13
2019-04-27T07:02:10.538Z,16.03
2019-04-27T07:04:40.594Z,15.98
2019-04-27T07:07:10.288Z,15.52
2019-04-27T07:09:40.130Z,15.30
2019-04-27T07:12:12.531Z,14.95
2019-04-27T07:14:52.216Z,14.65
2019-04-27T07:17:13.776Z,14.64
2019-04-27T07:19:43.445Z,14.44
2019-04-27T07:22:13.235Z,14.57
2019-04-27T07:24:42.919Z,14.80
2019-04-27T07:27:12.679Z,14.48
2019-04-27T07:29:44.651Z,14.44
2019-04-27T07:32:13.859Z,15.01
2019-04-27T07:34:43.547Z,15.11
2019-04-27T07:37:13.282Z,15.25
2019-04-27T07:39:42.953Z,15.64
2019-04-27T07:42:12.661Z,15.50
2019-04-27T07:44:47.077Z,15.64
2019-04-27T07:47:19.456Z,15.75
2019-04-27T07:49:51.289Z,15.62
2019-04-27T07:52:21.354Z,15.61
2019-04-27T07:54:51.356Z,15.36
2019-04-27T07:57:21.199Z,15.74
2019-04-27T07:59:50.953Z,15.53
2019-04-27T08:02:20.614Z,15.66
2019-04-27T08:04:50.634Z,15.62
2019-04-27T08:07:20.303Z,15.60
2019-04-27T08:09:50.089Z,15.42
2019-04-27T08:12:20.898Z,15.72
2019-04-27T08:14:50.713Z,15.59
2019-04-27T08:17:20.544Z,15.58
2019-04-27T08:19:50.243Z,15.76
2019-04-27T08:22:19.927Z,16.05
2019-04-27T08:24:49.932Z,16.00
2019-04-27T08:27:33.306Z,15.77
2019-04-27T08:30:17.172Z,16.19
2019-04-27T08:32:54.658Z,16.32
2019-04-27T08:35:24.429Z,16.49
2019-04-27T08:37:54.106Z,16.54
2019-04-27T08:40:23.954Z,16.41
2019-04-27T08:42:55.727Z,16.62
2019-04-27T08:45:25.672Z,16.63
2019-04-27T08:47:55.417Z,16.40
2019-04-27T08:50:25.122Z,16.23
2019-04-27T08:53:00.905Z,16.58
2019-04-27T08:55:30.618Z,16.72
2019-04-27T08:58:00.297Z,16.67
2019-04-27T09:00:30.089Z,16.61
2019-04-27T09:02:59.773Z,17.20
2019-04-27T09:05:29.473Z,17.52
2019-04-27T09:08:08.746Z,17.11
2019-04-27T09:10:40.193Z,17.41
2019-04-27T09:13:11.524Z,17.62
2019-04-27T09:15:49.457Z,17.61
2019-04-27T09:18:21.307Z,17.64
2019-04-27T09:20:58.987Z,17.74
2019-04-27T09:23:28.778Z,17.57
2019-04-27T09:25:59.461Z,17.61
2019-04-27T09:28:29.593Z,17.88
2019-04-27T09:30:59.354Z,17.66
2019-04-27T09:33:29.042Z,17.38
2019-04-27T09:35:58.878Z,17.25
2019-04-27T09:38:29.817Z,17.61
2019-04-27T09:40:59.723Z,17.93
2019-04-27T09:43:31.480Z,17.91
2019-04-27T09:46:01.890Z,17.79
2019-04-27T09:48:33.797Z,18.05
2019-04-27T09:51:06.493Z,18.19
2019-04-27T09:53:46.184Z,18.29
2019-04-27T09:56:18.220Z,18.23
2019-04-27T09:58:49.433Z,18.53
2019-04-27T10:01:20.528Z,18.50
2019-04-27T10:03:50.425Z,17.80
2019-04-27T10:06:20.332Z,18.10
2019-04-27T10:08:50.033Z,18.14
2019-04-27T10:11:19.812Z,17.85
2019-04-27T10:13:49.491Z,18.31
2019-04-27T10:16:19.323Z,18.48
2019-04-27T10:18:49.166Z,18.44
2019-04-27T10:21:18.874Z,19.10
2019-04-27T10:23:48.592Z,18.79
2019-04-27T10:26:18.295Z,19.11
2019-04-27T10:28:49.448Z,19.26
2019-04-27T10:31:19.216Z,18.85
2019-04-27T10:33:48.877Z,18.04
2019-04-27T10:36:20.326Z,17.67
2019-04-27T10:38:50.012Z,17.64
2019-04-27T10:41:19.889Z,17.73
2019-04-27T10:43:49.573Z,17.74
2019-04-27T10:46:19.350Z,17.95
2019-04-27T10:48:49.072Z,17.81
2019-04-27T10:51:18.802Z,17.44
2019-04-27T10:53:48.596Z,17.45
2019-04-27T10:56:18.310Z,17.98
2019-04-27T10:58:48.075Z,17.76
2019-04-27T11:01:17.828Z,17.70
2019-04-27T11:03:51.859Z,18.32
2019-04-27T11:06:39.510Z,18.26
2019-04-27T11:09:12.597Z,18.35
2019-04-27T11:11:42.433Z,18.65
2019-04-27T11:14:12.499Z,18.93
2019-04-27T11:16:42.254Z,19.17
2019-04-27T11:19:12.065Z,19.54
2019-04-27T11:21:41.780Z,18.81
2019-04-27T11:24:11.462Z,19.25
2019-04-27T11:26:41.183Z,19.25
2019-04-27T11:29:10.938Z,19.20
2019-04-27T11:31:40.621Z,19.11
2019-04-27T11:34:10.498Z,19.43
2019-04-27T11:36:50.741Z,19.20
2019-04-27T11:39:21.234Z,18.78
2019-04-27T11:41:50.982Z,18.19
2019-04-27T11:44:20.701Z,18.75
2019-04-27T11:46:50.528Z,18.98
2019-04-27T11:49:20.236Z,18.58
2019-04-27T11:51:50.244Z,18.22
2019-04-27T11:54:20.070Z,18.19
2019-04-27T11:56:49.815Z,18.10
2019-04-27T11:59:19.683Z,18.19
2019-04-27T12:01:49.526Z,18.95
2019-04-27T12:04:19.600Z,18.81
2019-04-27T12:06:49.435Z,18.72
2019-04-27T12:09:19.135Z,19.13
2019-04-27T12:11:49.042Z,19.56
2019-04-27T12:14:18.795Z,20.03
2019-04-27T12:16:48.486Z,19.64
2019-04-27T12:19:18.169Z,19.60
2019-04-27T12:21:47.845Z,19.75
2019-04-27T12:24:17.947Z,20.27
2019-04-27T12:26:58.245Z,20.71
2019-04-27T12:29:29.610Z,20.82
2019-04-27T12:31:59.420Z,20.78
2019-04-27T12:34:29.187Z,20.23
2019-04-27T12:36:58.851Z,19.68
2019-04-27T12:39:28.556Z,19.25
2019-04-27T12:41:58.218Z,19.15
2019-04-27T12:44:27.971Z,19.19
2019-04-27T12:47:02.513Z,20.10
2019-04-27T12:49:29.117Z,20.21
2019-04-27T12:51:58.794Z,20.63
2019-04-27T12:54:31.641Z,20.67
2019-04-27T12:57:03.223Z,20.22
2019-04-27T12:59:50.679Z,20.04
2019-04-27T13:02:22.227Z,20.21
2019-04-27T13:04:52.010Z,20.50
2019-04-27T13:07:22.798Z,19.81
2019-04-27T13:09:52.631Z,20.07
2019-04-27T13:12:22.398Z,19.65
2019-04-27T13:14:52.166Z,19.74
2019-04-27T13:17:21.934Z,19.18
2019-04-27T13:19:51.642Z,19.25
2019-04-27T13:22:21.333Z,19.67
2019-04-27T13:24:51.026Z,20.01
2019-04-27T13:27:20.689Z,19.98
2019-04-27T13:29:50.458Z,20.15
2019-04-27T13:32:20.215Z,20.53
2019-04-27T13:34:49.898Z,20.64
2019-04-27T13:37:33.512Z,20.38
2019-04-27T13:40:09.063Z,20.16
2019-04-27T13:42:39.816Z,19.56
2019-04-27T13:45:11.213Z,19.32
2019-04-27T13:47:48.339Z,19.46
2019-04-27T13:50:19.913Z,19.75
2019-04-27T13:52:56.968Z,20.10
2019-04-27T13:55:26.819Z,19.92
2019-04-27T13:57:56.503Z,19.91
2019-04-27T14:00:26.312Z,19.86
2019-04-27T14:02:55.981Z,19.51
2019-04-27T14:05:25.671Z,19.19
2019-04-27T14:07:55.424Z,18.91
2019-04-27T14:10:25.107Z,18.73
2019-04-27T14:12:54.862Z,18.56
2019-04-27T14:15:24.548Z,18.41
2019-04-27T14:17:54.342Z,18.19
2019-04-27T14:20:24.010Z,18.10
2019-04-27T14:22:55.321Z,18.09
2019-04-27T14:25:25.126Z,17.99
2019-04-27T14:27:54.872Z,17.92
2019-04-27T14:30:24.726Z,17.46
2019-04-27T14:32:54.471Z,17.49
2019-04-27T14:35:24.170Z,17.35
2019-04-27T14:37:53.850Z,17.24
2019-04-27T14:40:23.686Z,17.17
2019-04-27T14:42:53.862Z,17.06
2019-04-27T14:45:23.898Z,16.84
2019-04-27T14:47:53.591Z,16.73
2019-04-27T14:50:23.403Z,16.54
2019-04-27T14:52:56.626Z,16.68
2019-04-27T14:55:26.387Z,16.48
2019-04-27T14:57:56.107Z,16.34
2019-04-27T15:00:25.937Z,16.08
2019-04-27T15:02:55.625Z,16.00
2019-04-27T15:05:25.387Z,15.92
2019-04-27T15:07:55.182Z,15.91
2019-04-27T15:10:27.106Z,15.85
2019-04-27T15:12:56.238Z,15.73
2019-04-27T15:15:28.356Z,15.71
2019-04-27T15:18:04.462Z,15.65
2019-04-27T15:20:41.019Z,15.53
2019-04-27T15:23:10.255Z,15.67
2019-04-27T15:25:45.763Z,15.74
2019-04-27T15:28:15.261Z,15.61
2019-04-27T15:30:59.529Z,15.50
2019-04-27T15:33:51.449Z,15.52
2019-04-27T15:36:22.628Z,15.49
2019-04-27T15:38:58.463Z,15.34
2019-04-27T15:41:31.515Z,15.33
2019-04-27T15:44:05.726Z,15.18
2019-04-27T15:46:35.028Z,15.09
2019-04-27T15:49:09.618Z,15.04
2019-04-27T15:51:38.234Z,14.95
2019-04-27T15:54:08.161Z,14.95
2019-04-27T15:56:38.081Z,14.87
2019-04-27T15:59:08.701Z,14.79
2019-04-27T16:01:39.591Z,14.75
2019-04-27T16:04:11.276Z,14.72
2019-04-27T16:06:42.942Z,14.65
2019-04-27T16:09:15.978Z,14.56
2019-04-27T16:11:50.037Z,14.37
2019-04-27T16:14:18.881Z,14.41
2019-04-27T16:16:48.923Z,14.43
2019-04-27T16:19:19.693Z,14.41
2019-04-27T16:21:54.142Z,14.32
2019-04-27T16:24:21.421Z,14.09
2019-04-27T16:26:55.748Z,14.05
2019-04-27T16:29:23.083Z,14.10
2019-04-27T16:31:54.324Z,14.07
2019-04-27T16:34:24.316Z,14.06
2019-04-27T16:36:54.266Z,14.06
2019-04-27T16:39:24.166Z,14.11
2019-04-27T16:41:53.962Z,14.04
2019-04-27T16:44:23.770Z,14.14
2019-04-27T16:46:53.503Z,14.13
2019-04-27T16:49:23.571Z,14.14
2019-04-27T16:51:53.326Z,13.91
2019-04-27T16:54:28.162Z,14.08
2019-04-27T16:57:03.289Z,14.07
2019-04-27T16:59:43.308Z,13.98
2019-04-27T17:02:01.666Z,13.84
2019-04-27T17:04:31.614Z,13.82
2019-04-27T17:07:01.379Z,13.86
2019-04-27T17:09:31.174Z,13.87
2019-04-27T17:12:00.943Z,13.83
2019-04-27T17:14:36.721Z,13.80
2019-04-27T17:17:11.921Z,13.74
2019-04-27T17:19:43.907Z,13.48
2019-04-27T17:22:14.766Z,13.43
2019-04-27T17:24:48.647Z,13.34
2019-04-27T17:27:21.899Z,13.32
2019-04-27T17:29:57.477Z,13.43
2019-04-27T17:32:25.552Z,13.18
2019-04-27T17:34:55.565Z,13.29
2019-04-27T17:37:25.224Z,13.30
2019-04-27T17:39:59.501Z,13.30
2019-04-27T17:42:27.485Z,13.19
2019-04-27T17:45:00.487Z,13.15
2019-04-27T17:47:30.053Z,13.14
2019-04-27T17:49:59.960Z,13.17
2019-04-27T17:52:29.857Z,13.16
2019-04-27T17:55:00.618Z,13.10
2019-04-27T17:57:30.541Z,13.07
2019-04-27T18:00:03.371Z,13.01
2019-04-27T18:02:33.837Z,12.94
2019-04-27T18:05:03.279Z,12.84
2019-04-27T18:07:34.950Z,12.78
2019-04-27T18:10:05.205Z,12.74
2019-04-27T18:12:34.887Z,12.72
2019-04-27T18:15:05.750Z,12.73
2019-04-27T18:17:36.383Z,12.63
2019-04-27T18:20:21.546Z,12.52
2019-04-27T18:22:55.583Z,12.49
2019-04-27T18:25:25.263Z,12.52
2019-04-27T18:27:58.207Z,12.44
2019-04-27T18:30:33.635Z,12.40
2019-04-27T18:33:02.272Z,12.31
2019-04-27T18:35:32.120Z,12.23
2019-04-27T18:38:02.079Z,12.20
2019-04-27T18:40:33.260Z,12.18
2019-04-27T18:43:06.341Z,12.18
2019-04-27T18:45:38.075Z,12.11
2019-04-27T18:48:13.544Z,12.12
2019-04-27T18:50:43.546Z,12.05
2019-04-27T18:53:23.251Z,12.03
2019-04-27T18:55:56.979Z,12.05
2019-04-27T18:58:22.839Z,12.05
2019-04-27T19:00:52.683Z,12.03
2019-04-27T19:03:22.412Z,12.04
2019-04-27T19:05:52.093Z,12.02
2019-04-27T19:08:21.782Z,11.98
2019-04-27T19:10:51.542Z,11.95
2019-04-27T19:13:21.483Z,12.05
2019-04-27T19:15:51.227Z,12.05
2019-04-27T19:18:20.997Z,11.97
2019-04-27T19:20:50.744Z,11.94
2019-04-27T19:23:20.555Z,11.91
2019-04-27T19:25:52.021Z,11.87
2019-04-27T19:28:42.596Z,11.83
2019-04-27T19:31:16.713Z,11.81
2019-04-27T19:33:48.043Z,11.79
2019-04-27T19:36:19.179Z,11.77
2019-04-27T19:38:49.770Z,11.76
2019-04-27T19:41:19.713Z,11.78
2019-04-27T19:43:49.478Z,11.70
2019-04-27T19:46:20.033Z,11.70
2019-04-27T19:48:50.144Z,11.68
2019-04-27T19:51:19.826Z,11.66
2019-04-27T19:53:50.736Z,11.67
2019-04-27T19:56:21.402Z,11.68
2019-04-27T19:58:53.012Z,11.61
2019-04-27T20:01:30.254Z,11.58
2019-04-27T20:04:04.307Z,11.60
2019-04-27T20:06:34.057Z,11.59
2019-04-27T20:09:13.191Z,11.42
2019-04-27T20:11:43.001Z,11.42
2019-04-27T20:14:12.759Z,11.43
2019-04-27T20:16:42.512Z,11.38
2019-04-27T20:19:12.267Z,11.42
2019-04-27T20:21:42.003Z,11.45
2019-04-27T20:24:11.887Z,11.45
2019-04-27T20:26:41.551Z,11.46
2019-04-27T20:29:11.856Z,11.52
2019-04-27T20:31:41.867Z,11.43
2019-04-27T20:34:13.339Z,11.45
2019-04-27T20:36:43.076Z,11.38
2019-04-27T20:39:12.811Z,11.45
2019-04-27T20:41:42.491Z,11.39
2019-04-27T20:44:12.767Z,11.44
2019-04-27T20:46:42.701Z,11.49
2019-04-27T20:49:14.104Z,11.37
2019-04-27T20:52:01.050Z,11.36
2019-04-27T20:54:32.594Z,11.35
2019-04-27T20:57:02.340Z,11.31
2019-04-27T20:59:32.091Z,11.35
2019-04-27T21:02:22.210Z,11.29
2019-04-27T21:04:52.853Z,11.27
2019-04-27T21:07:24.287Z,11.35
2019-04-27T21:09:56.794Z,11.35
2019-04-27T21:12:26.669Z,11.38
2019-04-27T21:14:56.345Z,11.32
2019-04-27T21:17:26.027Z,11.31
2019-04-27T21:19:55.726Z,11.24
2019-04-27T21:22:25.417Z,11.25
2019-04-27T21:24:55.189Z,11.25
2019-04-27T21:27:24.996Z,11.22
2019-04-27T21:29:54.693Z,11.26
2019-04-27T21:32:24.366Z,11.26
2019-04-27T21:34:54.072Z,11.23
2019-04-27T21:37:25.220Z,11.21
2019-04-27T21:40:12.973Z,11.22
2019-04-27T21:42:47.693Z,11.18
2019-04-27T21:45:18.870Z,11.16
2019-04-27T21:47:48.572Z,11.14
2019-04-27T21:50:20.591Z,11.16
2019-04-27T21:53:00.589Z,11.14
2019-04-27T21:55:33.025Z,11.12
2019-04-27T21:58:02.779Z,11.21
2019-04-27T22:00:39.124Z,11.20
2019-04-27T22:03:17.386Z,11.10
2019-04-27T22:05:47.083Z,11.17
2019-04-27T22:08:16.934Z,11.14
2019-04-27T22:10:46.633Z,11.16
2019-04-27T22:13:17.550Z,11.20
2019-04-27T22:15:47.245Z,11.27
2019-04-27T22:18:16.989Z,11.21
2019-04-27T22:20:46.769Z,11.19
2019-04-27T22:23:18.175Z,11.15
2019-04-27T22:25:47.869Z,11.18
2019-04-27T22:28:17.633Z,11.19
2019-04-27T22:30:47.337Z,11.08
2019-04-27T22:33:17.012Z,10.98
2019-04-27T22:35:46.702Z,11.04
2019-04-27T22:38:16.553Z,10.96
2019-04-27T22:40:56.855Z,10.98
2019-04-27T22:43:44.560Z,11.03
2019-04-27T22:46:18.685Z,10.94
2019-04-27T22:48:48.426Z,10.94
2019-04-27T22:51:18.275Z,10.93
2019-04-27T22:53:47.962Z,10.96
2019-04-27T22:56:19.320Z,10.90
2019-04-27T22:59:07.207Z,10.89
2019-04-27T23:01:42.666Z,10.86
2019-04-27T23:04:14.154Z,10.83
2019-04-27T23:06:43.852Z,10.90
2019-04-27T23:09:13.798Z,10.86
2019-04-27T23:11:43.507Z,10.84
2019-04-27T23:14:13.184Z,10.86
2019-04-27T23:16:44.595Z,10.80
2019-04-27T23:19:14.271Z,10.82
2019-04-27T23:21:43.979Z,10.83
2019-04-27T23:24:13.667Z,10.83
2019-04-27T23:26:43.451Z,10.79
2019-04-27T23:29:15.832Z,10.80
2019-04-27T23:31:46.453Z,10.77
2019-04-27T23:34:16.214Z,10.77
2019-04-27T23:36:45.982Z,10.75
2019-04-27T23:39:15.806Z,10.73
2019-04-27T23:41:45.506Z,10.73
2019-04-27T23:44:15.249Z,10.72
2019-04-27T23:46:44.950Z,10.71
2019-04-27T23:49:14.633Z,10.70
2019-04-27T23:51:59.368Z,10.56
2019-04-27T23:54:29.111Z,10.56
2019-04-27T23:57:04.821Z,10.55
2019-04-27T23:59:34.582Z,10.56
